createdAt,value
2019-01-22T17:32:30.913Z,69.09
2019-01-22T17:34:59.765Z,69.29
2019-01-22T17:37:28.158Z,69.36
2019-01-22T17:39:56.498Z,68.47
2019-01-22T17:42:24.830Z,67.84
2019-01-22T17:44:53.536Z,67.51
2019-01-22T17:47:21.996Z,67.37
2019-01-22T17:49:50.333Z,66.89
2019-01-22T17:52:18.655Z,66.28
2019-01-22T17:54:47.134Z,66.06
2019-01-22T17:57:15.561Z,65.29
2019-01-22T17:59:44.423Z,65.20
2019-01-22T18:02:12.892Z,65.48
2019-01-22T18:04:41.454Z,65.17
2019-01-22T18:07:10.278Z,64.08
2019-01-22T18:09:38.686Z,63.60
2019-01-22T18:12:07.085Z,64.40
2019-01-22T18:14:35.595Z,64.03
2019-01-22T18:17:04.057Z,63.70
2019-01-22T18:19:32.267Z,63.61
2019-01-22T18:22:00.745Z,62.87
2019-01-22T18:24:29.060Z,62.64
2019-01-22T18:27:00.600Z,62.87
2019-01-22T18:29:28.934Z,63.19
2019-01-22T18:31:57.628Z,63.47
2019-01-22T18:34:25.964Z,63.40
2019-01-22T18:36:54.421Z,62.94
2019-01-22T18:39:22.750Z,63.12
2019-01-22T18:41:51.184Z,62.77
2019-01-22T18:44:19.648Z,62.43
2019-01-22T18:46:48.205Z,62.47
2019-01-22T18:49:16.530Z,62.64
2019-01-22T18:51:45.031Z,62.53
2019-01-22T18:54:13.705Z,62.56
2019-01-22T18:56:42.177Z,62.42
2019-01-22T18:59:10.567Z,62.21
2019-01-22T19:01:39.275Z,61.72
2019-01-22T19:04:07.771Z,62.25
2019-01-22T19:06:36.193Z,62.66
2019-01-22T19:09:06.603Z,62.83
2019-01-22T19:11:35.046Z,63.46
2019-01-22T19:14:03.500Z,63.52
2019-01-22T19:16:31.928Z,63.68
2019-01-22T19:19:00.517Z,62.96
2019-01-22T19:21:29.077Z,62.85
2019-01-22T19:23:57.488Z,63.00
2019-01-22T19:26:25.909Z,62.35
2019-01-22T19:28:54.439Z,63.04
2019-01-22T19:31:22.837Z,64.00
2019-01-22T19:33:51.357Z,64.40
2019-01-22T19:36:19.760Z,64.46
2019-01-22T19:38:48.769Z,64.61
2019-01-22T19:41:17.264Z,64.70
2019-01-22T19:43:46.661Z,64.69
2019-01-22T19:46:15.188Z,64.22
2019-01-22T19:48:43.530Z,64.44
2019-01-22T19:51:12.289Z,64.07
2019-01-22T19:53:40.818Z,63.93
2019-01-22T19:56:09.228Z,64.10
2019-01-22T19:58:37.605Z,64.74
2019-01-22T20:01:06.017Z,63.92
2019-01-22T20:03:34.543Z,62.69
2019-01-22T20:06:03.098Z,61.79
2019-01-22T20:08:31.676Z,62.19
2019-01-22T20:11:01.483Z,61.89
2019-01-22T20:13:29.865Z,62.46
2019-01-22T20:15:58.275Z,63.20
2019-01-22T20:18:27.176Z,62.76
2019-01-22T20:20:55.958Z,63.46
2019-01-22T20:23:24.537Z,63.12
2019-01-22T20:25:53.038Z,62.65
2019-01-22T20:28:21.865Z,62.56
2019-01-22T20:30:50.310Z,62.71
2019-01-22T20:33:18.895Z,63.55
2019-01-22T20:35:47.317Z,62.69
2019-01-22T20:38:16.426Z,62.32
2019-01-22T20:40:44.962Z,61.86
2019-01-22T20:43:14.028Z,62.76
2019-01-22T20:45:42.628Z,62.45
2019-01-22T20:48:10.911Z,62.69
2019-01-22T20:50:39.716Z,62.58
2019-01-22T20:53:08.111Z,62.27
2019-01-22T20:55:36.518Z,62.57
2019-01-22T20:58:05.616Z,62.86
2019-01-22T21:00:34.380Z,62.19
2019-01-22T21:03:02.873Z,62.48
2019-01-22T21:05:31.307Z,62.30
2019-01-22T21:07:59.798Z,62.17
2019-01-22T21:10:29.985Z,62.18
2019-01-22T21:12:58.486Z,62.66
2019-01-22T21:15:27.047Z,62.36
2019-01-22T21:17:55.455Z,62.10
2019-01-22T21:20:23.847Z,62.58
2019-01-22T21:22:52.687Z,62.69
2019-01-22T21:25:23.411Z,62.23
2019-01-22T21:27:51.883Z,61.80
2019-01-22T21:30:32.328Z,61.90
2019-01-22T21:33:00.950Z,62.80
2019-01-22T21:35:29.329Z,62.50
2019-01-22T21:37:57.785Z,62.39
2019-01-22T21:40:26.067Z,62.22
2019-01-22T21:42:54.493Z,62.03
2019-01-22T21:45:27.872Z,61.89
2019-01-22T21:47:56.239Z,61.50
2019-01-22T21:50:24.616Z,62.45
2019-01-22T21:52:53.083Z,61.95
2019-01-22T21:55:23.077Z,61.69
2019-01-22T21:57:51.595Z,61.87
2019-01-22T22:00:25.539Z,61.70
2019-01-22T22:02:53.934Z,61.43
2019-01-22T22:05:24.731Z,61.49
2019-01-22T22:07:53.208Z,61.30
2019-01-22T22:10:22.237Z,61.61
2019-01-22T22:12:50.723Z,61.77
2019-01-22T22:15:20.814Z,62.35
2019-01-22T22:17:49.217Z,62.40
2019-01-22T22:20:18.274Z,61.49
2019-01-22T22:22:46.660Z,61.29
2019-01-22T22:25:17.539Z,61.69
2019-01-22T22:27:45.933Z,61.63
2019-01-22T22:30:22.627Z,61.73
2019-01-22T22:32:51.027Z,62.60
2019-01-22T22:35:19.912Z,62.07
2019-01-22T22:37:48.480Z,62.26
2019-01-22T22:40:19.542Z,62.09
2019-01-22T22:42:47.849Z,61.87
2019-01-22T22:45:18.329Z,60.75
2019-01-22T22:47:47.021Z,61.89
2019-01-22T22:50:21.224Z,62.39
2019-01-22T22:52:49.600Z,61.93
2019-01-22T22:55:18.122Z,61.70
2019-01-22T22:57:46.423Z,62.58
2019-01-22T23:00:31.769Z,62.83
2019-01-22T23:03:01.227Z,61.82
2019-01-22T23:05:29.672Z,62.04
2019-01-22T23:07:57.995Z,61.81
2019-01-22T23:10:26.408Z,61.96
2019-01-22T23:12:54.720Z,61.41
2019-01-22T23:15:23.129Z,61.27
2019-01-22T23:17:51.526Z,61.39
2019-01-22T23:20:19.846Z,61.65
2019-01-22T23:22:48.245Z,61.38
2019-01-22T23:25:16.645Z,60.84
2019-01-22T23:27:45.030Z,60.49
2019-01-22T23:30:15.814Z,61.14
2019-01-22T23:32:44.142Z,61.19
2019-01-22T23:35:13.010Z,61.43
2019-01-22T23:37:41.362Z,61.37
2019-01-22T23:40:12.520Z,61.02
2019-01-22T23:42:42.613Z,61.42
2019-01-22T23:45:12.455Z,61.44
2019-01-22T23:47:40.866Z,61.00
2019-01-22T23:50:11.110Z,61.15
2019-01-22T23:52:39.947Z,61.61
2019-01-22T23:55:10.266Z,61.80
2019-01-22T23:57:38.691Z,61.44
